Terminal Aerodrome Forecast
Issued by NWS

Home | Current Version | Previous Version | Text Only | Print | Product List | Glossary On
Versions: 1 2 3 4 5 6 7 8 9 10 11 12 13 14 15 16 17 18 19 20 21 22 23 24 25 26 27 28 29 30 31 32 33 34
000
FTAK31 PAFA 172309 AAA
TAFAMC
TAF AMD
PAMC 172309Z 1723/1818 00000KT 2SM BR OVC004
     FM180300 00000KT 4SM BR BKN007
     FM181700 00000KT P6SM BKN015=

USA.gov is the U.S. government's official web portal to all federal, state and local government web resources and services.